Disclaimer

Please do not use the information listed here in-flight or in-navigation, as they are not provided to us by the airports but are provided by volunteers, so they might be outdated.

Search


Regions


Airport information page

Radio informations:
Approach (APP) - 120.3 MHz

Airport informations:
Latitude: 53° 21' 49.59" N
Longitude: 083° 32' 18.72" E
Elevation: 838 feet - 255 meters
Operating hours: 24 hour operations
Operating agency: Civil government, landing fees and diplomatic clearance may be required
Timezone: UTC+6(+7DT) - Last Sunday in March to last Sunday in October
Fuel: N/A

Runway information:
06/24 - 9350 x 164 feet< - >2850 x 50 meters

Recent METARs:
UNBB 182300Z 21002MPS 0200 0100SW R24/1000U FZFG VV000 M12/M13 Q1027 R24/450248 NOSIG RMK QBB020 QFE748
UNBB 182330Z 23001MPS 0250 0200SW R24/1200U FZFG VV001 M13/M15 Q1028 R24/450248 NOSIG RMK QBB050 QFE748
UNBB 190000Z 25002MPS 0300 R24/0900D FZFG BKN002 M13/M15 Q1028 R24/450248 NOSIG RMK QFE749

Airport on the map: